Time;durP1;ratioP1;P1;durP2;ratioP2;P2;SDS_P1;SDS_P2;PMS_P1;PMS_P2;Temp;Humidity;BMP_temperature;BMP_pressure;BME280_temperature;BME280_humidity;BME280_pressure;Samples;Min_cycle;Max_cycle;Signal;HPM_P1;HPM_P2
2021/12/15 00:00:35;;;;;;;222.60;133.70;;;;;;;2.61;100.00;100059.95;102247;1310;69328;-75
2021/12/15 00:03:07;;;;;;;198.60;115.00;;;;;;;2.62;100.00;100053.79;102514;1313;73545;-76
2021/12/15 00:05:35;;;;;;;186.40;111.50;;;;;;;2.62;100.00;100053.62;102539;1314;61392;-77
2021/12/15 00:08:06;;;;;;;189.90;106.30;;;;;;;2.62;100.00;100054.85;102567;1308;61321;-77
2021/12/15 00:10:33;;;;;;;188.40;107.80;;;;;;;2.63;100.00;100061.85;102584;1311;75265;-77
2021/12/15 00:12:59;;;;;;;184.70;110.50;;;;;;;2.63;100.00;100062.02;102401;1311;69225;-77
2021/12/15 00:15:28;;;;;;;186.30;107.60;;;;;;;2.63;100.00;100059.56;102506;1308;73468;-76
2021/12/15 00:17:57;;;;;;;192.10;112.90;;;;;;;2.62;100.00;100059.23;102565;1308;61447;-76
2021/12/15 00:20:25;;;;;;;200.40;118.70;;;;;;;2.62;100.00;100060.81;102288;1315;61417;-76
2021/12/15 00:22:52;;;;;;;180.80;108.30;;;;;;;2.62;100.00;100058.89;102556;1308;75444;-76
2021/12/15 00:25:24;;;;;;;178.30;102.60;;;;;;;2.63;100.00;100062.02;102503;1314;69213;-75
2021/12/15 00:27:51;;;;;;;185.40;106.90;;;;;;;2.63;100.00;100062.72;102645;1307;73179;-76
2021/12/15 00:30:19;;;;;;;186.90;109.90;;;;;;;2.62;100.00;100059.56;102269;1315;61465;-76
2021/12/15 00:32:47;;;;;;;189.30;109.80;;;;;;;2.64;100.00;100058.85;102701;1308;62212;-78
2021/12/15 00:35:13;;;;;;;190.50;111.20;;;;;;;2.65;100.00;100057.06;102513;1315;75282;-76
2021/12/15 00:37:40;;;;;;;192.00;113.20;;;;;;;2.65;100.00;100052.17;102515;1307;70454;-76
2021/12/15 00:40:10;;;;;;;189.40;109.10;;;;;;;2.65;100.00;100051.45;102499;1311;61402;-76
2021/12/15 00:42:37;;;;;;;179.20;108.30;;;;;;;2.67;100.00;100048.82;102278;1314;61497;-76
2021/12/15 00:45:05;;;;;;;180.40;101.80;;;;;;;2.66;100.00;100051.27;102527;1314;62133;-76
2021/12/15 00:47:32;;;;;;;166.30;96.00;;;;;;;2.65;100.00;100054.27;102584;1311;74869;-76
2021/12/15 00:50:06;;;;;;;165.70;93.80;;;;;;;2.67;100.00;100054.95;102552;1311;69588;-76
2021/12/15 00:52:37;;;;;;;169.20;93.20;;;;;;;2.66;100.00;100053.38;102575;1314;73271;-75
2021/12/15 00:55:08;;;;;;;156.70;88.90;;;;;;;2.67;100.00;100053.71;102567;1314;61313;-76
2021/12/15 00:57:35;;;;;;;159.90;89.80;;;;;;;2.68;100.00;100058.96;102615;1307;61377;-75
2021/12/15 01:00:10;;;;;;;162.90;91.50;;;;;;;2.69;100.00;100065.79;102576;1313;76169;-75
2021/12/15 01:02:37;;;;;;;164.10;87.70;;;;;;;2.71;100.00;100072.41;102530;1314;69396;-76
2021/12/15 01:05:06;;;;;;;157.30;93.20;;;;;;;2.72;100.00;100071.52;102510;1315;73339;-75
2021/12/15 01:07:33;;;;;;;160.80;88.40;;;;;;;2.74;100.00;100072.89;102318;1314;61534;-77
2021/12/15 01:10:00;;;;;;;157.60;87.50;;;;;;;2.76;100.00;100061.80;102537;1311;62052;-77
2021/12/15 01:20:45;;;;;;;145.00;84.30;;;;;;;2.81;100.00;100069.95;102536;1314;61335;-76
2021/12/15 01:23:17;;;;;;;146.20;82.10;;;;;;;2.82;100.00;100066.61;102541;1311;61210;-76
2021/12/15 01:25:54;;;;;;;141.50;78.50;;;;;;;2.84;100.00;100064.11;102218;1313;75647;-77
2021/12/15 01:28:23;;;;;;;135.80;78.10;;;;;;;2.88;100.00;100065.81;102519;1308;70451;-76
2021/12/15 01:30:52;;;;;;;142.20;80.10;;;;;;;2.89;100.00;100065.59;102484;1311;73250;-76
2021/12/15 01:33:20;;;;;;;140.20;78.60;;;;;;;2.89;100.00;100066.13;102547;1307;61316;-76
2021/12/15 01:35:49;;;;;;;140.20;77.50;;;;;;;2.89;100.00;100063.67;102568;1314;61321;-77
2021/12/15 01:38:18;;;;;;;139.80;77.20;;;;;;;2.88;100.00;100074.55;102505;1311;75320;-77
2021/12/15 01:40:46;;;;;;;132.50;78.40;;;;;;;2.87;100.00;100072.83;102608;1307;69777;-76
2021/12/15 01:43:34;;;;;;;135.70;75.30;;;;;;;2.89;100.00;100070.87;102490;1314;73279;-76
2021/12/15 01:49:05;;;;;;;134.90;72.20;;;;;;;2.89;100.00;100071.90;102640;1314;61931;-74
2021/12/15 01:51:32;;;;;;;133.00;72.70;;;;;;;2.89;100.00;100075.26;102539;1314;76300;-76
2021/12/15 01:53:59;;;;;;;133.60;74.90;;;;;;;2.89;100.00;100073.33;102670;1314;69348;-78
2021/12/15 01:56:26;;;;;;;128.30;71.20;;;;;;;2.91;100.00;100068.02;102548;1314;74220;-76
2021/12/15 01:58:53;;;;;;;122.40;71.70;;;;;;;2.92;100.00;100066.77;102576;1315;61277;-77
2021/12/15 02:01:20;;;;;;;135.30;71.50;;;;;;;2.93;100.00;100070.95;102211;1315;61515;-77
2021/12/15 02:03:47;;;;;;;136.60;70.10;;;;;;;2.94;100.00;100071.12;102542;1314;75512;-75
2021/12/15 02:06:15;;;;;;;126.40;69.70;;;;;;;2.94;100.00;100065.84;102609;1311;69398;-76
2021/12/15 02:08:43;;;;;;;119.30;70.60;;;;;;;2.95;100.00;100064.77;102622;1314;74285;-77
2021/12/15 02:11:10;;;;;;;125.50;70.60;;;;;;;2.98;100.00;100068.23;102624;1314;61340;-76
2021/12/15 02:13:38;;;;;;;124.70;69.70;;;;;;;2.99;100.00;100073.67;103538;1314;61821;-76
2021/12/15 02:16:07;;;;;;;131.10;71.10;;;;;;;3.01;100.00;100072.05;103543;1315;73328;-77
2021/12/15 02:18:37;;;;;;;122.10;70.70;;;;;;;3.01;100.00;100069.59;103763;1314;69662;-77
2021/12/15 02:21:13;;;;;;;125.90;72.20;;;;;;;2.99;100.00;100063.64;102719;1315;73758;-76
2021/12/15 02:23:47;;;;;;;118.80;65.90;;;;;;;3.02;100.00;100067.45;102609;1314;61338;-76
2021/12/15 02:26:22;;;;;;;112.30;64.10;;;;;;;3.04;100.00;100067.08;102604;1311;61313;-76
2021/12/15 02:28:58;;;;;;;120.80;66.70;;;;;;;3.04;100.00;100068.14;102563;1314;75127;-75
2021/12/15 02:39:38;;;;;;;127.60;65.70;;;;;;;3.03;100.00;100081.13;102475;1315;61427;-77
2021/12/15 02:42:05;;;;;;;126.10;64.20;;;;;;;3.01;100.00;100084.66;102583;1313;76199;-75
2021/12/15 02:44:32;;;;;;;120.30;61.60;;;;;;;3.02;100.00;100091.34;102562;1314;69291;-77
2021/12/15 02:47:00;;;;;;;126.00;62.80;;;;;;;3.02;100.00;100095.36;102601;1307;73573;-75
2021/12/15 02:49:29;;;;;;;125.20;65.50;;;;;;;3.01;100.00;100100.66;102611;1314;61421;-75
2021/12/15 02:51:59;;;;;;;120.50;61.80;;;;;;;3.02;100.00;100100.98;102632;1307;61320;-77
2021/12/15 02:54:27;;;;;;;126.00;64.40;;;;;;;3.00;100.00;100100.34;102631;1308;76337;-75
2021/12/15 02:56:56;;;;;;;116.10;62.50;;;;;;;2.99;100.00;100098.05;102628;1307;69745;-79
2021/12/15 02:59:40;;;;;;;119.10;63.40;;;;;;;2.98;100.00;100098.96;102470;1315;71481;-78
2021/12/15 03:07:24;;;;;;;110.40;58.10;;;;;;;2.94;100.00;100086.58;102770;1313;73683;-75
2021/12/15 03:15:34;;;;;;;107.70;57.80;;;;;;;2.90;100.00;100085.41;103504;1314;61170;-77
2021/12/15 03:18:16;;;;;;;109.70;58.20;;;;;;;2.89;100.00;100099.29;103572;1307;61266;-77
2021/12/15 03:20:49;;;;;;;106.20;57.10;;;;;;;2.88;100.00;100108.10;105202;1317;75544;-78
2021/12/15 03:23:42;;;;;;;109.90;55.90;;;;;;;2.87;100.00;100105.48;105938;1314;69293;-77
2021/12/15 03:26:11;;;;;;;99.40;56.20;;;;;;;2.84;100.00;100100.61;105900;1307;73199;-77
2021/12/15 03:34:37;;;;;;;99.10;54.90;;;;;;;2.81;100.00;100118.73;102612;1308;75379;-77
2021/12/15 03:39:31;;;;;;;101.90;55.40;;;;;;;2.83;100.00;100121.15;102358;1313;73263;-79
2021/12/15 03:42:03;;;;;;;96.80;55.80;;;;;;;2.83;100.00;100117.82;102294;1313;61483;-77
2021/12/15 03:44:33;;;;;;;98.90;53.60;;;;;;;2.80;100.00;100116.64;102534;1311;62147;-76
2021/12/15 03:47:02;;;;;;;93.00;49.90;;;;;;;2.79;100.00;100120.17;102450;1311;75479;-76
2021/12/15 03:49:29;;;;;;;95.00;52.50;;;;;;;2.77;100.00;100123.91;102558;1313;68686;-77
2021/12/15 03:51:56;;;;;;;95.80;54.30;;;;;;;2.76;100.00;100124.26;102524;1308;74356;-77
2021/12/15 03:54:22;;;;;;;93.40;53.80;;;;;;;2.77;100.00;100121.63;102502;1308;61626;-76
2021/12/15 03:56:50;;;;;;;94.70;53.10;;;;;;;2.77;100.00;100121.98;102529;1307;61391;-76
2021/12/15 03:59:19;;;;;;;93.50;51.40;;;;;;;2.76;100.00;100119.01;102228;1315;75565;-75
2021/12/15 04:01:46;;;;;;;97.70;51.10;;;;;;;2.76;100.00;100125.50;102193;1313;67844;-76
2021/12/15 04:04:12;;;;;;;95.50;51.80;;;;;;;2.75;100.00;100124.98;102480;1307;73339;-75
2021/12/15 04:06:40;;;;;;;99.50;52.80;;;;;;;2.77;100.00;100124.95;102526;1314;61346;-77
2021/12/15 04:09:11;;;;;;;90.90;50.40;;;;;;;2.79;100.00;100125.27;102493;1312;61205;-77
2021/12/15 04:11:39;;;;;;;98.20;53.80;;;;;;;2.81;100.00;100129.44;102521;1313;76245;-77
2021/12/15 04:14:11;;;;;;;99.60;53.30;;;;;;;2.83;100.00;100133.27;102567;1307;70473;-77
2021/12/15 04:19:16;;;;;;;94.30;49.60;;;;;;;2.85;100.00;100129.38;102585;1311;61269;-77
2021/12/15 04:21:43;;;;;;;99.00;52.80;;;;;;;2.84;100.00;100136.76;102606;1307;62036;-78
2021/12/15 04:24:13;;;;;;;97.40;53.40;;;;;;;2.83;100.00;100139.23;102495;1308;76021;-78
2021/12/15 04:26:40;;;;;;;;;;;;;;;2.85;100.00;100140.79;102592;1308;69340;-77
2021/12/15 04:29:07;;;;;;;97.30;51.30;;;;;;;2.85;100.00;100138.68;102469;1310;74455;-76
2021/12/15 04:31:39;;;;;;;94.10;53.90;;;;;;;2.86;100.00;100139.36;102559;1307;61505;-76
2021/12/15 04:34:08;;;;;;;88.70;48.40;;;;;;;2.86;100.00;100145.51;102449;1310;61219;-75
2021/12/15 04:36:38;;;;;;;88.40;49.80;;;;;;;2.84;100.00;100147.30;102504;1307;76499;-75
2021/12/15 04:39:06;;;;;;;;;;;;;;;2.79;100.00;100151.58;102568;1307;69156;-76
2021/12/15 04:41:34;;;;;;;100.30;51.60;;;;;;;2.79;100.00;100148.77;102139;1312;170846;-76
2021/12/15 04:44:09;;;;;;;92.60;52.90;;;;;;;2.82;100.00;100151.02;102292;1313;61322;-76
2021/12/15 04:46:39;;;;;;;94.70;52.00;;;;;;;2.80;100.00;100151.39;102536;1308;61407;-77
2021/12/15 04:49:11;;;;;;;100.00;56.90;;;;;;;2.78;100.00;100154.94;102585;1307;76423;-76
2021/12/15 04:51:37;;;;;;;92.80;51.80;;;;;;;2.76;100.00;100160.77;102482;1314;69389;-76
2021/12/15 04:54:05;;;;;;;91.70;51.00;;;;;;;2.74;100.00;100164.66;102502;1308;73482;-76
2021/12/15 04:56:31;;;;;;;90.60;51.00;;;;;;;2.74;100.00;100163.44;102275;1314;61348;-75
2021/12/15 04:58:58;;;;;;;94.30;51.70;;;;;;;2.74;100.00;100165.17;102551;1307;61349;-76
2021/12/15 05:01:25;;;;;;;93.70;52.90;;;;;;;2.74;100.00;100167.29;102521;1308;75483;-77
2021/12/15 05:03:52;;;;;;;90.90;49.70;;;;;;;2.72;100.00;100170.65;102505;1311;69746;-77
2021/12/15 05:06:18;;;;;;;93.40;51.60;;;;;;;2.71;100.00;100172.43;102213;1313;74737;-77
2021/12/15 05:08:45;;;;;;;98.70;52.10;;;;;;;2.69;100.00;100170.71;102475;1308;61396;-76
2021/12/15 05:11:12;;;;;;;120.50;58.30;;;;;;;2.69;100.00;100172.11;102613;1307;61876;-78
2021/12/15 05:13:39;;;;;;;134.70;64.80;;;;;;;2.70;100.00;100172.28;102550;1307;76409;-77
2021/12/15 05:16:07;;;;;;;113.30;61.30;;;;;;;2.68;100.00;100168.09;102502;1307;69639;-77
2021/12/15 05:18:35;;;;;;;116.40;62.00;;;;;;;2.67;100.00;100171.96;102282;1313;74425;-77
2021/12/15 05:21:05;;;;;;;127.60;68.40;;;;;;;2.67;100.00;100176.02;102549;1307;61266;-76
2021/12/15 05:23:32;;;;;;;125.70;70.80;;;;;;;2.67;100.00;100173.73;102541;1307;61317;-76
2021/12/15 05:26:00;;;;;;;116.80;68.30;;;;;;;2.67;100.00;100176.00;102572;1310;75212;-78
2021/12/15 05:28:27;;;;;;;100.10;53.30;;;;;;;2.69;100.00;100182.65;102499;1308;68238;-77
2021/12/15 05:30:56;;;;;;;95.80;53.00;;;;;;;2.70;100.00;100182.80;102493;1307;72307;-77
2021/12/15 05:33:23;;;;;;;94.90;51.60;;;;;;;2.72;100.00;100179.80;102562;1308;61326;-75
2021/12/15 05:35:51;;;;;;;99.90;52.50;;;;;;;2.74;100.00;100175.89;102536;1311;61306;-76
2021/12/15 05:38:18;;;;;;;98.60;51.50;;;;;;;2.74;100.00;100176.23;102501;1311;75388;-77
2021/12/15 05:40:45;;;;;;;101.70;53.40;;;;;;;2.74;100.00;100181.51;102475;1308;69270;-76
2021/12/15 05:43:11;;;;;;;97.70;57.40;;;;;;;2.73;100.00;100181.70;102501;1308;72507;-76
2021/12/15 05:45:40;;;;;;;104.00;58.50;;;;;;;2.73;100.00;100182.56;102561;1307;61466;-76
2021/12/15 05:48:12;;;;;;;102.20;55.40;;;;;;;2.73;100.00;100181.35;102541;1307;61405;-76
2021/12/15 05:50:40;;;;;;;101.40;58.20;;;;;;;2.73;100.00;100182.58;102519;1311;76222;-76
2021/12/15 05:53:06;;;;;;;102.00;57.00;;;;;;;2.71;100.00;100184.00;102484;1307;68563;-76
2021/12/15 05:55:34;;;;;;;100.00;55.90;;;;;;;2.70;100.00;100182.60;102510;1307;73442;-76
2021/12/15 05:58:04;;;;;;;97.60;55.90;;;;;;;2.72;100.00;100187.84;102518;1307;61301;-76
2021/12/15 06:00:34;;;;;;;102.30;56.00;;;;;;;2.72;100.00;100190.66;102632;1308;61549;-76
2021/12/15 06:03:02;;;;;;;99.60;57.50;;;;;;;2.71;100.00;100192.60;102517;1307;75219;-77
2021/12/15 06:05:30;;;;;;;96.30;56.00;;;;;;;2.72;100.00;100197.50;102301;1312;67864;-76
2021/12/15 06:07:57;;;;;;;96.20;56.60;;;;;;;2.73;100.00;100200.11;102578;1314;72528;-77
2021/12/15 06:10:27;;;;;;;97.90;56.40;;;;;;;2.72;100.00;100201.73;102520;1307;61345;-77
2021/12/15 06:12:55;;;;;;;99.90;61.70;;;;;;;2.72;100.00;100205.57;102531;1308;61329;-77
2021/12/15 06:15:25;;;;;;;96.20;56.00;;;;;;;2.72;100.00;100209.97;102529;1308;76795;-77
2021/12/15 06:17:59;;;;;;;94.20;54.20;;;;;;;2.72;100.00;100209.44;102523;1311;70338;-76
2021/12/15 06:20:27;;;;;;;89.20;54.30;;;;;;;2.73;100.00;100210.13;102573;1308;74468;-77
2021/12/15 06:22:55;;;;;;;91.70;53.60;;;;;;;2.73;100.00;100211.71;102539;1308;61208;-76
2021/12/15 06:25:22;;;;;;;88.10;52.70;;;;;;;2.75;100.00;100216.94;102528;1311;61196;-76
2021/12/15 06:27:49;;;;;;;91.40;55.10;;;;;;;2.76;100.00;100217.63;102534;1308;76188;-77
2021/12/15 06:30:16;;;;;;;93.40;55.90;;;;;;;2.76;100.00;100217.80;102450;1311;69818;-77
2021/12/15 06:32:43;;;;;;;95.20;58.00;;;;;;;2.78;100.00;100214.79;102565;1307;74513;-77
2021/12/15 06:35:10;;;;;;;100.50;61.20;;;;;;;2.77;100.00;100216.02;102512;1308;61305;-76
2021/12/15 06:37:38;;;;;;;103.50;65.60;;;;;;;2.75;100.00;100217.48;102661;1307;61289;-77
2021/12/15 06:40:07;;;;;;;101.70;65.70;;;;;;;2.72;100.00;100219.45;102567;1307;76199;-76
2021/12/15 06:42:39;;;;;;;96.00;58.40;;;;;;;2.75;100.00;100228.86;102589;1307;69006;-77
2021/12/15 06:45:11;;;;;;;99.20;66.10;;;;;;;2.75;100.00;100227.64;102614;1310;73939;-76
2021/12/15 06:58:40;;;;;;;90.90;53.10;;;;;;;2.83;100.00;100236.47;102540;1307;73591;-75
2021/12/15 07:01:07;;;;;;;94.70;59.20;;;;;;;2.85;100.00;100230.98;102535;1307;61752;-76
2021/12/15 07:03:34;;;;;;;86.90;54.30;;;;;;;2.88;100.00;100231.31;102548;1308;61408;-77
2021/12/15 07:06:01;;;;;;;92.80;58.50;;;;;;;2.90;100.00;100230.39;102607;1308;74947;-77
2021/12/15 07:08:28;;;;;;;94.60;57.30;;;;;;;2.95;100.00;100228.39;102685;1307;70484;-76
2021/12/15 07:10:57;;;;;;;91.40;56.00;;;;;;;3.01;100.00;100230.40;103609;1307;72819;-76
2021/12/15 07:13:25;;;;;;;98.30;58.70;;;;;;;3.06;100.00;100232.07;103832;1307;61469;-76
2021/12/15 07:15:59;;;;;;;107.90;65.00;;;;;;;3.09;100.00;100229.38;103079;1304;61452;-76
2021/12/15 07:19:06;;;;;;;96.90;62.30;;;;;;;3.11;100.00;100236.90;102652;1314;73676;-76
2021/12/15 07:21:37;;;;;;;96.40;59.80;;;;;;;3.15;100.00;100239.83;102636;1307;69549;-76
2021/12/15 07:24:06;;;;;;;95.40;58.50;;;;;;;3.18;100.00;100242.05;102599;1307;73271;-77
2021/12/15 07:26:34;;;;;;;95.80;56.70;;;;;;;3.18;100.00;100246.44;102550;1307;61343;-78
2021/12/15 07:29:01;;;;;;;92.70;59.20;;;;;;;3.21;100.00;100248.67;102498;1311;61324;-76
2021/12/15 07:31:28;;;;;;;90.50;55.40;;;;;;;3.24;100.00;100251.79;102501;1307;74926;-77
2021/12/15 07:33:55;;;;;;;93.30;58.50;;;;;;;3.27;100.00;100257.71;102300;1310;70313;-76
2021/12/15 07:36:21;;;;;;;97.90;58.90;;;;;;;3.31;100.00;100269.58;102490;1311;73584;-77
2021/12/15 07:38:48;;;;;;;97.80;58.50;;;;;;;3.38;100.00;100269.46;102461;1307;61400;-77
2021/12/15 07:41:53;;;;;;;91.40;57.80;;;;;;;3.41;100.00;100270.13;102491;1308;61338;-76
2021/12/15 07:44:10;;;;;;;93.20;56.90;;;;;;;3.47;100.00;100273.52;102483;1307;74771;-76
2021/12/15 07:46:37;;;;;;;100.30;61.10;;;;;;;3.50;100.00;100278.21;102504;1310;69649;-76
2021/12/15 07:49:04;;;;;;;97.80;61.20;;;;;;;3.51;100.00;100282.95;102546;1307;73317;-76
2021/12/15 07:51:31;;;;;;;93.90;59.20;;;;;;;3.51;100.00;100286.98;102478;1307;61408;-77
2021/12/15 07:53:57;;;;;;;89.90;58.40;;;;;;;3.51;100.00;100293.48;102352;1310;61959;-75
2021/12/15 07:56:24;;;;;;;99.60;58.00;;;;;;;3.51;100.00;100299.83;102519;1311;75183;-76
2021/12/15 07:58:50;;;;;;;96.30;58.90;;;;;;;3.53;100.00;100303.99;102504;1306;70378;-77
2021/12/15 08:01:18;;;;;;;87.90;58.00;;;;;;;3.54;100.00;100307.15;102398;1310;61310;-77
2021/12/15 08:03:50;;;;;;;90.40;56.60;;;;;;;3.54;100.00;100309.61;102476;1307;61319;-76
2021/12/15 08:06:18;;;;;;;106.00;64.50;;;;;;;3.54;100.00;100314.34;102326;1315;62203;-76
2021/12/15 08:08:45;;;;;;;108.50;66.60;;;;;;;3.56;100.00;100315.72;102511;1308;75905;-76
2021/12/15 08:11:11;;;;;;;107.10;65.90;;;;;;;3.58;100.00;100315.33;102379;1308;61282;-75
2021/12/15 08:13:38;;;;;;;104.40;65.80;;;;;;;3.61;100.00;100309.31;102457;1314;73114;-76
2021/12/15 08:16:06;;;;;;;109.30;67.70;;;;;;;3.63;100.00;100306.45;102333;1311;61350;-77
2021/12/15 08:18:33;;;;;;;110.40;66.20;;;;;;;3.65;100.00;100302.20;102583;1307;61968;-76
2021/12/15 08:21:00;;;;;;;118.20;68.10;;;;;;;3.68;100.00;100304.62;102551;1308;75145;-76
2021/12/15 08:23:27;;;;;;;114.30;70.20;;;;;;;3.71;100.00;100306.69;102503;1308;69763;-76
2021/12/15 08:25:54;;;;;;;119.70;68.50;;;;;;;3.74;100.00;100308.73;102530;1307;61388;-77
2021/12/15 08:28:21;;;;;;;111.30;67.50;;;;;;;3.79;100.00;100313.73;102500;1311;61279;-77
2021/12/15 08:30:49;;;;;;;118.80;67.20;;;;;;;3.84;100.00;100320.50;102501;1308;61260;-77
2021/12/15 08:33:19;;;;;;;114.60;67.10;;;;;;;3.84;100.00;100317.33;102531;1307;76827;-76
2021/12/15 08:35:57;;;;;;;106.40;63.00;;;;;;;3.89;100.00;100314.09;102528;1308;69225;-75
2021/12/15 08:38:29;;;;;;;105.00;63.50;;;;;;;3.89;100.00;100312.31;102555;1308;73168;-76
2021/12/15 08:40:56;;;;;;;101.20;62.10;;;;;;;3.90;100.00;100318.30;102560;1307;61304;-75
2021/12/15 08:43:24;;;;;;;114.00;66.80;;;;;;;3.88;100.00;100320.41;102500;1307;61391;-76
2021/12/15 08:46:02;;;;;;;113.80;66.60;;;;;;;3.90;100.00;100324.95;102541;1308;76478;-76
2021/12/15 08:48:31;;;;;;;106.30;64.30;;;;;;;3.90;100.00;100324.27;102598;1310;68049;-76
2021/12/15 08:50:59;;;;;;;112.50;64.20;;;;;;;3.88;100.00;100327.29;102674;1308;71448;-76
2021/12/15 08:53:26;;;;;;;109.60;65.30;;;;;;;3.86;100.00;100327.84;102640;1307;61324;-78
2021/12/15 08:55:53;;;;;;;111.40;62.60;;;;;;;3.86;100.00;100330.48;102656;1307;61464;-76
2021/12/15 08:58:22;;;;;;;118.00;64.20;;;;;;;3.86;100.00;100333.83;102588;1307;73301;-77
2021/12/15 09:00:53;;;;;;;118.10;64.50;;;;;;;3.88;100.00;100337.83;102639;1307;70734;-75
2021/12/15 09:03:21;;;;;;;118.30;62.20;;;;;;;3.90;100.00;100343.08;102654;1307;71337;-76
2021/12/15 09:05:52;;;;;;;104.20;58.20;;;;;;;3.91;100.00;100340.41;102842;1307;61304;-77
2021/12/15 09:08:20;;;;;;;109.30;57.20;;;;;;;3.92;100.00;100344.45;102925;1308;61272;-80
2021/12/15 09:10:48;;;;;;;108.50;56.30;;;;;;;3.92;100.00;100339.88;102941;1308;76264;-76
2021/12/15 09:13:14;;;;;;;112.80;57.30;;;;;;;3.93;100.00;100337.92;103139;1307;69675;-77
2021/12/15 09:15:42;;;;;;;112.70;57.30;;;;;;;3.95;100.00;100327.34;103230;1308;73382;-77
2021/12/15 09:18:12;;;;;;;112.20;57.60;;;;;;;3.96;100.00;100322.92;103557;1308;61426;-77
2021/12/15 09:20:42;;;;;;;109.10;57.00;;;;;;;3.97;100.00;100321.49;103508;1307;61619;-76
2021/12/15 09:23:13;;;;;;;107.70;53.70;;;;;;;4.00;100.00;100319.68;104851;1308;74433;-76
2021/12/15 09:25:41;;;;;;;109.90;56.70;;;;;;;4.03;100.00;100323.31;105709;1307;69462;-76
2021/12/15 09:28:08;;;;;;;98.30;50.90;;;;;;;4.05;100.00;100319.92;105426;1314;73221;-76
2021/12/15 09:30:43;;;;;;;99.20;52.90;;;;;;;4.07;100.00;100323.24;105764;1307;59407;-77
2021/12/15 09:33:13;;;;;;;102.20;50.50;;;;;;;4.10;100.00;100318.27;105002;1307;60861;-79
2021/12/15 09:35:41;;;;;;;89.90;46.40;;;;;;;4.13;100.00;100320.67;102763;1311;76503;-79
2021/12/15 09:38:07;;;;;;;98.50;52.00;;;;;;;4.16;100.00;100316.37;102737;1308;69567;-76
2021/12/15 09:40:34;;;;;;;96.80;51.90;;;;;;;4.21;100.00;100313.11;102602;1307;74122;-77
2021/12/15 09:43:03;;;;;;;99.80;52.20;;;;;;;4.24;100.00;100312.00;102625;1307;61299;-82
2021/12/15 10:05:00;;;;;;;92.80;50.70;;;;;;;4.39;100.00;100305.89;102494;1307;67600;-75
2021/12/15 10:19:05;;;;;;;83.50;49.20;;;;;;;4.43;100.00;100304.05;102330;1314;69662;-76
2021/12/15 10:21:34;;;;;;;86.30;50.50;;;;;;;4.45;100.00;100302.42;102505;1307;72826;-76
2021/12/15 10:24:03;;;;;;;85.30;51.60;;;;;;;4.48;100.00;100303.23;102593;1307;61311;-77
2021/12/15 10:26:30;;;;;;;83.90;49.80;;;;;;;4.52;100.00;100305.11;102565;1308;61600;-76
2021/12/15 10:28:57;;;;;;;80.90;48.90;;;;;;;4.53;100.00;100300.84;102498;1308;76445;-77
2021/12/15 10:31:28;;;;;;;80.80;48.60;;;;;;;4.56;100.00;100303.25;102219;1314;69044;-76
2021/12/15 10:34:00;;;;;;;79.10;48.70;;;;;;;4.57;100.00;100301.45;102242;1314;74311;-75
2021/12/15 10:36:34;;;;;;;81.00;49.80;;;;;;;4.58;100.00;100297.20;102468;1308;61256;-76
2021/12/15 10:39:06;;;;;;;81.20;49.90;;;;;;;4.60;100.00;100300.69;102504;1308;61932;-76
2021/12/15 10:41:39;;;;;;;84.30;49.90;;;;;;;4.64;100.00;100302.02;102488;1311;75808;-76
2021/12/15 10:44:08;;;;;;;83.20;53.00;;;;;;;4.67;100.00;100304.59;102611;1307;70314;-76
2021/12/15 10:46:56;;;;;;;77.30;48.20;;;;;;;4.70;100.00;100302.09;102490;1308;72885;-76
2021/12/15 10:49:25;;;;;;;89.10;51.00;;;;;;;4.74;100.00;100297.58;102526;1307;61317;-76
2021/12/15 10:52:01;;;;;;;80.40;51.10;;;;;;;4.78;100.00;100290.63;102500;1307;61292;-76
2021/12/15 10:54:35;;;;;;;79.10;51.50;;;;;;;4.81;100.00;100285.79;102554;1308;75391;-75
2021/12/15 10:57:16;;;;;;;74.90;48.10;;;;;;;4.83;100.00;100279.78;102617;1308;69246;-77
2021/12/15 10:59:55;;;;;;;75.50;49.00;;;;;;;4.86;100.00;100276.72;102660;1307;74305;-75
2021/12/15 11:02:32;;;;;;;68.70;44.10;;;;;;;4.88;100.00;100277.73;102530;1307;61338;-76
2021/12/15 11:05:05;;;;;;;71.50;46.40;;;;;;;4.87;100.00;100280.92;102590;1307;61882;-77
2021/12/15 11:07:48;;;;;;;69.50;44.00;;;;;;;4.87;100.00;100275.46;102607;1307;74780;-77
2021/12/15 11:10:27;;;;;;;70.40;44.50;;;;;;;4.86;100.00;100273.38;102602;1307;69835;-77
2021/12/15 11:12:57;;;;;;;77.90;47.20;;;;;;;4.88;100.00;100269.98;102534;1308;74472;-75
2021/12/15 11:15:30;;;;;;;73.20;46.00;;;;;;;4.94;100.00;100259.62;102702;1314;61345;-77
2021/12/15 11:18:03;;;;;;;84.70;50.70;;;;;;;4.99;100.00;100257.05;102276;1313;62088;-76
2021/12/15 11:20:33;;;;;;;82.40;51.40;;;;;;;5.03;100.00;100254.83;102688;1308;74865;-76
2021/12/15 11:23:04;;;;;;;80.70;50.00;;;;;;;5.05;100.00;100254.42;102699;1311;69306;-75
2021/12/15 11:25:37;;;;;;;70.60;46.00;;;;;;;5.05;100.00;100257.42;102570;1308;72460;-77
2021/12/15 11:28:06;;;;;;;75.60;48.10;;;;;;;5.04;100.00;100258.14;102539;1314;61475;-76
2021/12/15 11:30:42;;;;;;;74.80;46.70;;;;;;;5.01;100.00;100254.88;102525;1308;62020;-77
2021/12/15 11:33:19;;;;;;;72.20;46.00;;;;;;;4.99;100.00;100250.70;102582;1308;76522;-77
2021/12/15 11:36:09;;;;;;;76.30;45.70;;;;;;;4.97;100.00;100244.40;102655;1308;70355;-76
2021/12/15 11:38:41;;;;;;;;;;;;;;;4.96;100.00;100247.42;102594;1311;74030;-76
2021/12/15 11:41:15;;;;;;;82.00;49.90;;;;;;;4.92;100.00;100242.94;102625;1314;61402;-76
2021/12/15 11:43:50;;;;;;;84.70;51.10;;;;;;;4.90;100.00;100237.36;102601;1307;61842;-77
2021/12/15 11:46:25;;;;;;;73.40;46.10;;;;;;;4.86;100.00;100222.84;102570;1307;75264;-76
2021/12/15 11:48:57;;;;;;;76.70;46.50;;;;;;;4.86;100.00;100220.72;102514;1307;69082;-76
2021/12/15 11:51:39;;;;;;;76.50;48.90;;;;;;;4.85;100.00;100218.27;102539;1314;74169;-76
2021/12/15 11:54:32;;;;;;;72.70;46.40;;;;;;;4.84;100.00;100219.17;102600;1307;61328;-76
2021/12/15 11:57:05;;;;;;;77.40;47.90;;;;;;;4.84;100.00;100220.39;101731;1319;61189;-77
2021/12/15 11:59:43;;;;;;;67.20;45.20;;;;;;;4.87;100.00;100227.22;101852;1319;75623;-76
2021/12/15 12:02:21;;;;;;;73.20;46.10;;;;;;;4.89;100.00;100232.63;102139;1316;69306;-75
2021/12/15 12:04:56;;;;;;;77.70;46.90;;;;;;;4.92;100.00;100231.31;102529;1316;74597;-76
2021/12/15 12:07:23;;;;;;;75.60;46.30;;;;;;;4.96;100.00;100224.52;102701;1316;61594;-77
2021/12/15 12:10:33;;;;;;;67.30;42.70;;;;;;;4.99;100.00;100227.27;102457;1316;61345;-76
2021/12/15 12:13:11;;;;;;;66.10;41.80;;;;;;;4.96;100.00;100233.84;101558;1322;76479;-76
2021/12/15 12:15:45;;;;;;;68.40;42.70;;;;;;;4.95;100.00;100234.76;101546;1322;69290;-77
2021/12/15 12:18:18;;;;;;;68.10;43.50;;;;;;;4.96;100.00;100240.56;101570;1322;74577;-76
2021/12/15 12:20:49;;;;;;;69.50;43.60;;;;;;;4.96;100.00;100238.45;101295;1322;61503;-77
2021/12/15 12:23:22;;;;;;;71.30;43.30;;;;;;;4.97;100.00;100243.34;101312;1322;61317;-77
2021/12/15 12:25:53;;;;;;;65.20;40.70;;;;;;;4.97;100.00;100241.59;101473;1326;76006;-76
2021/12/15 12:28:27;;;;;;;73.30;41.20;;;;;;;4.96;100.00;100242.51;101040;1325;69294;-75
2021/12/15 12:31:01;;;;;;;69.90;45.50;;;;;;;4.95;100.00;100245.67;100968;1325;74357;-76
2021/12/15 12:33:28;;;;;;;67.70;44.10;;;;;;;4.96;100.00;100241.60;101661;1323;61460;-77
2021/12/15 12:36:09;;;;;;;72.10;43.30;;;;;;;5.00;100.00;100239.56;101584;1319;62172;-78